Latest Weather Observations for St Kilda Harbour RMYS

IDV60801

Issued at 3:35 pm EST Saturday 19 April 2014 (issued every 30 minutes, with the page automatically refreshed every 10 minutes)

About weather observations | Map of weather stations | Latest weather observations for VIC | Other Formats
Station Details ID: 086220 Name: ST KILDA HARBOUR - RMYS Lat: -37.86 Lon: 144.96 Height: 6.4 m
Data from the previous 72 hours. | See also: Recent months for locations in Victoria
Date/Time
EST
Temp
°C
App
Temp
°C
Dew
Point
Rel
Hum
%
Delta-T
°C
Wind Press
QNH
hPa
Press
MSL
hPa
Rain
since 9 am
mm
Dir
 
Spd
km/h
Gust
km/h
Spd
kts
Gust
kts
19/03:30pm - - - - - SSW 19 22 10 12 - - -
19/03:00pm - - - - - SSE 13 19 7 10 - - -
19/02:30pm - - - - - S 13 20 7 11 - - -
19/02:00pm - - - - - SSE 11 17 6 9 - - -
19/01:30pm - - - - - SSE 13 17 7 9 - - -
19/01:00pm - - - - - S 24 30 13 16 - - -
19/12:30pm - - - - - SW 22 28 12 15 - - -
19/12:00pm - - - - - SW 28 35 15 19 - - -
19/11:30am - - - - - SW 32 37 17 20 - - -
19/11:00am - - - - - SW 28 33 15 18 - - -
19/10:30am - - - - - WSW 35 43 19 23 - - -
19/10:00am - - - - - WSW 24 30 13 16 - - -
19/09:30am - - - - - W 20 30 11 16 - - -
19/09:00am - - - - - WSW 28 33 15 18 - - -
19/08:30am - - - - - SW 26 33 14 18 - - -
19/08:00am - - - - - WSW 28 33 15 18 - - -
19/07:30am - - - - - WSW 32 35 17 19 - - -
19/07:00am - - - - - WSW 35 41 19 22 - - -
19/06:30am - - - - - SW 37 44 20 24 - - -
19/06:00am - - - - - WSW 28 33 15 18 - - -
19/05:30am - - - - - WSW 33 41 18 22 - - -
19/05:00am - - - - - WSW 32 41 17 22 - - -
19/04:30am - - - - - WSW 32 37 17 20 - - -
19/04:00am - - - - - WSW 32 37 17 20 - - -
19/03:30am - - - - - WSW 33 41 18 22 - - -
19/03:00am - - - - - WSW 33 41 18 22 - - -
19/02:30am - - - - - WSW 30 35 16 19 - - -
19/02:00am - - - - - WSW 33 41 18 22 - - -
19/01:30am - - - - - W 28 35 15 19 - - -
19/01:00am - - - - - WSW 33 39 18 21 - - -
19/12:30am - - - - - WSW 32 37 17 20 - - -
19/12:00am - - - - - WSW 37 43 20 23 - - -
 
Date/Time
EST
Temp
°C
App
Temp
°C
Dew
Point
Rel
Hum
%
Delta-T
°C
Wind Press
QNH
hPa
Press
MSL
hPa
Rain
since 9 am
mm
Dir
 
Spd
km/h
Gust
km/h
Spd
kts
Gust
kts
18/11:30pm - - - - - WSW 26 32 14 17 - - -
18/11:00pm - - - - - WSW 28 35 15 19 - - -
18/10:30pm - - - - - WSW 37 43 20 23 - - -
18/10:00pm - - - - - WSW 35 44 19 24 - - -
18/09:30pm - - - - - WSW 30 37 16 20 - - -
18/09:00pm - - - - - WSW 32 37 17 20 - - -
18/08:30pm - - - - - WSW 35 41 19 22 - - -
18/08:00pm - - - - - SW 39 50 21 27 - - -
18/07:30pm - - - - - SW 37 44 20 24 - - -
18/07:00pm - - - - - SSW 39 44 21 24 - - -
18/06:30pm - - - - - SW 43 50 23 27 - - -
18/06:00pm - - - - - SSW 43 48 23 26 - - -
18/05:30pm - - - - - SSW 41 46 22 25 - - -
18/05:00pm - - - - - SSW 39 46 21 25 - - -
18/04:30pm - - - - - SSW 43 52 23 28 - - -
18/04:00pm - - - - - SSW 41 48 22 26 - - -
18/03:30pm - - - - - SSW 37 46 20 25 - - -
18/03:00pm - - - - - SSW 44 50 24 27 - - -
18/02:30pm - - - - - SW 39 48 21 26 - - -
18/02:00pm - - - - - SSW 39 46 21 25 - - -
18/01:30pm - - - - - SSW 43 50 23 27 - - -
18/01:00pm - - - - - SW 44 54 24 29 - - -
18/12:30pm - - - - - SSW 48 57 26 31 - - -
18/12:00pm - - - - - SW 44 52 24 28 - - -
18/11:43am - - - - - SW 44 50 24 27 - - -
18/11:30am - - - - - WSW 43 52 23 28 - - -
18/11:00am - - - - - W 41 54 22 29 - - -
18/10:30am - - - - - W 52 76 28 41 - - -
18/10:00am - - - - - NW 11 20 6 11 - - -
18/09:30am - - - - - W 15 19 8 10 - - -
18/09:00am - - - - - NNW 13 20 7 11 - - -
18/08:30am - - - - - N 9 13 5 7 - - -
18/08:00am - - - - - N 7 13 4 7 - - -
18/07:30am - - - - - N 13 20 7 11 - - -
18/07:00am - - - - - NNE 13 19 7 10 - - -
18/06:30am - - - - - NNE 13 19 7 10 - - -
18/06:00am - - - - - NNE 11 15 6 8 - - -
18/05:30am - - - - - NNE 7 9 4 5 - - -
18/05:00am - - - - - N 7 9 4 5 - - -
18/04:30am - - - - - N 6 9 3 5 - - -
18/04:00am - - - - - NW 9 13 5 7 - - -
18/03:30am - - - - - WNW 11 17 6 9 - - -
18/03:00am - - - - - W 15 17 8 9 - - -
18/02:30am - - - - - W 15 20 8 11 - - -
18/02:00am - - - - - WNW 9 20 5 11 - - -
18/01:30am - - - - - N 9 13 5 7 - - -
18/01:00am - - - - - NNW 11 15 6 8 - - -
18/12:30am - - - - - NNW 11 15 6 8 - - -
18/12:00am - - - - - NNW 11 15 6 8 - - -
 
Date/Time
EST
Temp
°C
App
Temp
°C
Dew
Point
Rel
Hum
%
Delta-T
°C
Wind Press
QNH
hPa
Press
MSL
hPa
Rain
since 9 am
mm
Dir
 
Spd
km/h
Gust
km/h
Spd
kts
Gust
kts
17/11:30pm - - - - - NNW 13 24 7 13 - - -
17/11:00pm - - - - - W 15 19 8 10 - - -
17/10:30pm - - - - - NW 15 20 8 11 - - -
17/10:00pm - - - - - N 20 26 11 14 - - -
17/09:30pm - - - - - N 13 20 7 11 - - -
17/09:00pm - - - - - N 9 9 5 5 - - -
17/08:30pm - - - - - NNE 7 9 4 5 - - -
17/08:00pm - - - - - NNE 6 7 3 4 - - -
17/07:30pm - - - - - NNE 6 7 3 4 - - -
17/07:00pm - - - - - CALM 0 2 0 1 - - -
17/06:30pm - - - - - S 7 7 4 4 - - -
17/06:00pm - - - - - SSE 9 9 5 5 - - -
17/05:30pm - - - - - SSE 13 15 7 8 - - -
17/05:00pm - - - - - SSE 17 19 9 10 - - -
17/04:30pm - - - - - S 20 22 11 12 - - -
17/04:00pm - - - - - S 19 20 10 11 - - -
17/03:30pm - - - - - S 19 20 10 11 - - -
17/03:00pm - - - - - SSE 19 20 10 11 - - -
17/02:30pm - - - - - S 17 19 9 10 - - -
17/02:00pm - - - - - S 17 19 9 10 - - -
17/01:30pm - - - - - SSE 11 13 6 7 - - -
17/01:00pm - - - - - S 11 11 6 6 - - -
17/12:30pm - - - - - S 9 11 5 6 - - -
17/12:00pm - - - - - SSW 7 7 4 4 - - -
17/11:30am - - - - - S 6 7 3 4 - - -
17/11:00am - - - - - SW 6 7 3 4 - - -
17/10:30am - - - - - SW 7 9 4 5 - - -
17/10:00am - - - - - N 4 6 2 3 - - -
17/09:30am - - - - - N 4 7 2 4 - - -
17/09:00am - - - - - NNE 7 11 4 6 - - -
17/08:30am - - - - - N 11 15 6 8 - - -
17/08:00am - - - - - NNE 9 13 5 7 - - -
17/07:30am - - - - - NNE 9 13 5 7 - - -
17/07:00am - - - - - NNE 6 9 3 5 - - -
17/06:30am - - - - - NNE 7 11 4 6 - - -
17/06:00am - - - - - N 9 11 5 6 - - -
17/05:30am - - - - - NNE 6 9 3 5 - - -
17/05:00am - - - - - NNE 6 7 3 4 - - -
17/04:30am - - - - - NNE 6 9 3 5 - - -
17/04:00am - - - - - N 9 11 5 6 - - -
17/03:30am - - - - - NNE 7 11 4 6 - - -
17/03:00am - - - - - NNE 6 7 3 4 - - -
17/02:30am - - - - - NNE 6 7 3 4 - - -
17/02:00am - - - - - NNE 4 6 2 3 - - -
17/01:30am - - - - - NNE 4 7 2 4 - - -
17/01:00am - - - - - WNW 9 11 5 6 - - -
17/12:30am - - - - - N 4 6 2 3 - - -
17/12:00am - - - - - N 4 6 2 3 - - -
 
Date/Time
EST
Temp
°C
App
Temp
°C
Dew
Point
Rel
Hum
%
Delta-T
°C
Wind Press
QNH
hPa
Press
MSL
hPa
Rain
since 9 am
mm
Dir
 
Spd
km/h
Gust
km/h
Spd
kts
Gust
kts
16/11:30pm - - - - - N 7 9 4 5 - - -
16/11:00pm - - - - - NE 9 11 5 6 - - -
16/10:30pm - - - - - N 4 6 2 3 - - -
16/10:00pm - - - - - NNE 6 7 3 4 - - -
16/09:30pm - - - - - N 7 11 4 6 - - -
16/09:00pm - - - - - NNE 4 6 2 3 - - -
16/08:30pm - - - - - NE 4 6 2 3 - - -
16/08:00pm - - - - - E 7 9 4 5 - - -
16/07:30pm - - - - - SE 6 7 3 4 - - -
16/07:00pm - - - - - SE 9 11 5 6 - - -
16/06:30pm - - - - - SSE 13 17 7 9 - - -
16/06:00pm - - - - - S 13 17 7 9 - - -
16/05:30pm - - - - - S 15 17 8 9 - - -
16/05:00pm - - - - - S 13 15 7 8 - - -
16/04:30pm - - - - - SSW 17 20 9 11 - - -
16/04:00pm - - - - - SSW 19 20 10 11 - - -

Other Formats:

Comma delimited format used in spreadsheet applications
http://www.bom.gov.au/fwo/IDV60801/IDV60801.95864.axf

JavaScript Object Notation format (JSON) in row-major order
http://www.bom.gov.au/fwo/IDV60801/IDV60801.95864.json